sensor_id;sensor_type;location;lat;lon;timestamp;P1;durP1;ratioP1;P2;durP2;ratioP2
40533;SDS011;26233;51.894;10.192;2022-09-30T00:01:14;1.67;;;1.57;;
40533;SDS011;26233;51.894;10.192;2022-09-30T00:03:41;1.70;;;1.60;;
40533;SDS011;26233;51.894;10.192;2022-09-30T00:06:09;1.60;;;1.50;;
40533;SDS011;26233;51.894;10.192;2022-09-30T00:08:37;1.77;;;1.43;;
40533;SDS011;26233;51.894;10.192;2022-09-30T00:11:06;1.40;;;1.30;;
40533;SDS011;26233;51.894;10.192;2022-09-30T00:13:37;6.80;;;1.63;;
40533;SDS011;26233;51.894;10.192;2022-09-30T00:16:09;1.80;;;1.30;;
40533;SDS011;26233;51.894;10.192;2022-09-30T00:18:37;1.30;;;1.20;;
40533;SDS011;26233;51.894;10.192;2022-09-30T00:21:05;1.47;;;1.30;;
40533;SDS011;26233;51.894;10.192;2022-09-30T00:23:33;1.60;;;1.50;;
40533;SDS011;26233;51.894;10.192;2022-09-30T00:26:04;2.30;;;1.30;;
40533;SDS011;26233;51.894;10.192;2022-09-30T00:28:36;2.07;;;1.40;;
40533;SDS011;26233;51.894;10.192;2022-09-30T00:31:04;1.03;;;1.03;;
40533;SDS011;26233;51.894;10.192;2022-09-30T00:33:35;1.33;;;1.23;;
40533;SDS011;26233;51.894;10.192;2022-09-30T00:36:03;1.10;;;1.10;;
40533;SDS011;26233;51.894;10.192;2022-09-30T00:38:31;1.30;;;1.20;;
40533;SDS011;26233;51.894;10.192;2022-09-30T00:40:59;1.30;;;1.20;;
40533;SDS011;26233;51.894;10.192;2022-09-30T00:43:39;1.70;;;1.30;;
40533;SDS011;26233;51.894;10.192;2022-09-30T00:46:14;1.20;;;1.10;;
40533;SDS011;26233;51.894;10.192;2022-09-30T00:48:46;1.33;;;1.20;;
40533;SDS011;26233;51.894;10.192;2022-09-30T00:51:26;1.10;;;1.10;;
40533;SDS011;26233;51.894;10.192;2022-09-30T00:53:57;1.23;;;1.10;;
40533;SDS011;26233;51.894;10.192;2022-09-30T00:56:28;2.17;;;1.10;;
40533;SDS011;26233;51.894;10.192;2022-09-30T00:59:03;1.40;;;1.30;;
40533;SDS011;26233;51.894;10.192;2022-09-30T01:01:37;1.00;;;1.00;;
40533;SDS011;26233;51.894;10.192;2022-09-30T01:04:08;1.17;;;1.07;;
40533;SDS011;26233;51.894;10.192;2022-09-30T01:06:38;1.30;;;1.20;;
40533;SDS011;26233;51.894;10.192;2022-09-30T01:09:06;1.40;;;1.30;;
40533;SDS011;26233;51.894;10.192;2022-09-30T01:11:34;1.30;;;1.20;;
40533;SDS011;26233;51.894;10.192;2022-09-30T01:14:03;2.17;;;1.30;;
40533;SDS011;26233;51.894;10.192;2022-09-30T01:16:39;1.40;;;1.30;;
40533;SDS011;26233;51.894;10.192;2022-09-30T01:19:22;1.30;;;1.20;;
40533;SDS011;26233;51.894;10.192;2022-09-30T01:28:37;1.10;;;1.10;;
40533;SDS011;26233;51.894;10.192;2022-09-30T01:31:36;1.40;;;1.30;;
40533;SDS011;26233;51.894;10.192;2022-09-30T01:34:16;1.80;;;1.17;;
40533;SDS011;26233;51.894;10.192;2022-09-30T01:37:04;1.27;;;1.17;;
40533;SDS011;26233;51.894;10.192;2022-09-30T01:39:40;1.20;;;1.10;;
40533;SDS011;26233;51.894;10.192;2022-09-30T01:42:17;1.50;;;1.20;;
40533;SDS011;26233;51.894;10.192;2022-09-30T01:44:54;2.70;;;1.40;;
40533;SDS011;26233;51.894;10.192;2022-09-30T01:47:30;1.70;;;1.37;;
40533;SDS011;26233;51.894;10.192;2022-09-30T01:50:02;1.20;;;1.10;;
40533;SDS011;26233;51.894;10.192;2022-09-30T01:52:36;1.40;;;1.30;;
40533;SDS011;26233;51.894;10.192;2022-09-30T01:55:11;1.60;;;1.30;;
40533;SDS011;26233;51.894;10.192;2022-09-30T01:57:45;1.30;;;1.20;;
40533;SDS011;26233;51.894;10.192;2022-09-30T02:00:20;1.60;;;1.10;;
40533;SDS011;26233;51.894;10.192;2022-09-30T02:02:50;1.30;;;1.20;;
40533;SDS011;26233;51.894;10.192;2022-09-30T02:05:22;1.60;;;1.30;;
40533;SDS011;26233;51.894;10.192;2022-09-30T02:07:55;1.27;;;1.17;;
40533;SDS011;26233;51.894;10.192;2022-09-30T02:10:27;1.40;;;1.30;;
40533;SDS011;26233;51.894;10.192;2022-09-30T02:13:01;1.30;;;1.20;;
40533;SDS011;26233;51.894;10.192;2022-09-30T02:15:34;1.33;;;1.23;;
40533;SDS011;26233;51.894;10.192;2022-09-30T02:18:09;1.40;;;1.30;;
40533;SDS011;26233;51.894;10.192;2022-09-30T02:20:44;1.67;;;1.30;;
40533;SDS011;26233;51.894;10.192;2022-09-30T02:23:18;1.30;;;1.20;;
40533;SDS011;26233;51.894;10.192;2022-09-30T02:25:54;1.27;;;1.17;;
40533;SDS011;26233;51.894;10.192;2022-09-30T02:28:31;1.13;;;1.10;;
40533;SDS011;26233;51.894;10.192;2022-09-30T02:31:02;1.13;;;1.10;;
40533;SDS011;26233;51.894;10.192;2022-09-30T02:33:33;1.03;;;1.03;;
40533;SDS011;26233;51.894;10.192;2022-09-30T02:36:07;1.30;;;1.20;;
40533;SDS011;26233;51.894;10.192;2022-09-30T02:38:43;1.30;;;1.20;;
40533;SDS011;26233;51.894;10.192;2022-09-30T02:41:16;1.10;;;1.00;;
40533;SDS011;26233;51.894;10.192;2022-09-30T02:43:50;1.30;;;1.20;;
40533;SDS011;26233;51.894;10.192;2022-09-30T02:46:21;1.37;;;1.20;;
40533;SDS011;26233;51.894;10.192;2022-09-30T02:48:58;1.10;;;1.10;;
40533;SDS011;26233;51.894;10.192;2022-09-30T02:51:32;1.30;;;1.20;;
40533;SDS011;26233;51.894;10.192;2022-09-30T02:54:08;1.30;;;1.20;;
40533;SDS011;26233;51.894;10.192;2022-09-30T02:56:47;1.30;;;1.20;;
40533;SDS011;26233;51.894;10.192;2022-09-30T02:59:19;2.20;;;1.20;;
40533;SDS011;26233;51.894;10.192;2022-09-30T03:01:48;1.20;;;1.20;;
40533;SDS011;26233;51.894;10.192;2022-09-30T03:04:17;1.20;;;1.10;;
40533;SDS011;26233;51.894;10.192;2022-09-30T03:06:48;1.20;;;1.10;;
40533;SDS011;26233;51.894;10.192;2022-09-30T03:09:16;1.47;;;1.37;;
40533;SDS011;26233;51.894;10.192;2022-09-30T03:11:43;1.40;;;1.30;;
40533;SDS011;26233;51.894;10.192;2022-09-30T03:14:16;1.50;;;1.40;;
40533;SDS011;26233;51.894;10.192;2022-09-30T03:20:38;1.47;;;1.30;;
40533;SDS011;26233;51.894;10.192;2022-09-30T03:23:22;1.30;;;1.10;;
40533;SDS011;26233;51.894;10.192;2022-09-30T03:26:08;1.17;;;1.10;;
40533;SDS011;26233;51.894;10.192;2022-09-30T03:28:49;1.17;;;1.07;;
40533;SDS011;26233;51.894;10.192;2022-09-30T03:31:25;1.27;;;1.17;;
40533;SDS011;26233;51.894;10.192;2022-09-30T03:34:03;1.30;;;1.20;;
40533;SDS011;26233;51.894;10.192;2022-09-30T03:36:45;1.43;;;1.20;;
40533;SDS011;26233;51.894;10.192;2022-09-30T03:39:28;1.43;;;1.33;;
40533;SDS011;26233;51.894;10.192;2022-09-30T03:42:10;1.37;;;1.27;;
40533;SDS011;26233;51.894;10.192;2022-09-30T03:44:43;1.40;;;1.30;;
40533;SDS011;26233;51.894;10.192;2022-09-30T03:47:19;1.30;;;1.20;;
40533;SDS011;26233;51.894;10.192;2022-09-30T03:49:51;1.40;;;1.30;;
40533;SDS011;26233;51.894;10.192;2022-09-30T03:52:25;2.03;;;1.43;;
40533;SDS011;26233;51.894;10.192;2022-09-30T03:54:56;1.40;;;1.30;;
40533;SDS011;26233;51.894;10.192;2022-09-30T03:57:27;1.67;;;1.57;;
40533;SDS011;26233;51.894;10.192;2022-09-30T03:59:55;1.60;;;1.50;;
40533;SDS011;26233;51.894;10.192;2022-09-30T04:02:22;1.40;;;1.30;;
40533;SDS011;26233;51.894;10.192;2022-09-30T04:04:55;1.77;;;1.40;;
40533;SDS011;26233;51.894;10.192;2022-09-30T04:07:23;1.40;;;1.30;;
40533;SDS011;26233;51.894;10.192;2022-09-30T04:09:51;1.73;;;1.40;;
40533;SDS011;26233;51.894;10.192;2022-09-30T04:12:18;1.83;;;1.40;;
40533;SDS011;26233;51.894;10.192;2022-09-30T04:14:45;1.57;;;1.47;;
40533;SDS011;26233;51.894;10.192;2022-09-30T04:17:13;1.70;;;1.60;;
40533;SDS011;26233;51.894;10.192;2022-09-30T04:19:42;1.70;;;1.60;;
40533;SDS011;26233;51.894;10.192;2022-09-30T04:22:09;1.57;;;1.47;;
40533;SDS011;26233;51.894;10.192;2022-09-30T04:24:36;1.90;;;1.50;;
40533;SDS011;26233;51.894;10.192;2022-09-30T04:27:04;1.50;;;1.40;;
40533;SDS011;26233;51.894;10.192;2022-09-30T04:29:31;1.80;;;1.37;;
40533;SDS011;26233;51.894;10.192;2022-09-30T04:31:58;1.60;;;1.50;;
40533;SDS011;26233;51.894;10.192;2022-09-30T04:34:26;1.80;;;1.70;;
40533;SDS011;26233;51.894;10.192;2022-09-30T04:36:53;1.80;;;1.70;;
40533;SDS011;26233;51.894;10.192;2022-09-30T04:39:20;1.90;;;1.70;;
40533;SDS011;26233;51.894;10.192;2022-09-30T04:41:47;2.00;;;1.77;;
40533;SDS011;26233;51.894;10.192;2022-09-30T04:44:19;1.63;;;1.53;;
40533;SDS011;26233;51.894;10.192;2022-09-30T04:46:46;1.70;;;1.60;;
40533;SDS011;26233;51.894;10.192;2022-09-30T04:49:17;2.00;;;1.90;;
40533;SDS011;26233;51.894;10.192;2022-09-30T04:51:44;1.83;;;1.73;;
40533;SDS011;26233;51.894;10.192;2022-09-30T04:54:11;2.03;;;1.77;;
40533;SDS011;26233;51.894;10.192;2022-09-30T04:56:40;2.00;;;1.80;;
40533;SDS011;26233;51.894;10.192;2022-09-30T04:59:07;2.47;;;2.27;;
40533;SDS011;26233;51.894;10.192;2022-09-30T05:01:36;2.40;;;2.17;;
40533;SDS011;26233;51.894;10.192;2022-09-30T05:04:07;2.33;;;2.10;;
40533;SDS011;26233;51.894;10.192;2022-09-30T05:06:38;2.47;;;2.10;;
40533;SDS011;26233;51.894;10.192;2022-09-30T05:09:05;1.90;;;1.80;;
40533;SDS011;26233;51.894;10.192;2022-09-30T05:11:33;1.90;;;1.80;;
40533;SDS011;26233;51.894;10.192;2022-09-30T05:14:05;1.87;;;1.77;;
40533;SDS011;26233;51.894;10.192;2022-09-30T05:16:33;1.80;;;1.70;;
40533;SDS011;26233;51.894;10.192;2022-09-30T05:19:02;1.90;;;1.80;;
40533;SDS011;26233;51.894;10.192;2022-09-30T05:21:29;1.90;;;1.80;;
40533;SDS011;26233;51.894;10.192;2022-09-30T05:23:56;1.90;;;1.80;;
40533;SDS011;26233;51.894;10.192;2022-09-30T05:26:23;1.70;;;1.60;;
40533;SDS011;26233;51.894;10.192;2022-09-30T05:28:50;1.70;;;1.60;;
40533;SDS011;26233;51.894;10.192;2022-09-30T05:31:17;1.77;;;1.67;;
40533;SDS011;26233;51.894;10.192;2022-09-30T05:33:47;1.80;;;1.70;;
40533;SDS011;26233;51.894;10.192;2022-09-30T05:36:14;1.80;;;1.70;;
40533;SDS011;26233;51.894;10.192;2022-09-30T05:38:42;2.20;;;1.70;;
40533;SDS011;26233;51.894;10.192;2022-09-30T05:41:09;1.97;;;1.80;;
40533;SDS011;26233;51.894;10.192;2022-09-30T05:43:40;2.17;;;1.90;;
40533;SDS011;26233;51.894;10.192;2022-09-30T05:46:12;1.80;;;1.70;;
40533;SDS011;26233;51.894;10.192;2022-09-30T05:48:39;1.70;;;1.60;;
40533;SDS011;26233;51.894;10.192;2022-09-30T05:51:12;5.00;;;2.50;;
40533;SDS011;26233;51.894;10.192;2022-09-30T05:53:41;4.17;;;2.70;;
40533;SDS011;26233;51.894;10.192;2022-09-30T05:56:11;2.60;;;2.40;;
40533;SDS011;26233;51.894;10.192;2022-09-30T05:58:39;3.20;;;2.53;;
40533;SDS011;26233;51.894;10.192;2022-09-30T06:01:07;2.00;;;1.80;;
40533;SDS011;26233;51.894;10.192;2022-09-30T06:03:36;2.07;;;1.83;;
40533;SDS011;26233;51.894;10.192;2022-09-30T06:06:03;2.70;;;2.50;;
40533;SDS011;26233;51.894;10.192;2022-09-30T06:08:34;4.67;;;3.53;;
40533;SDS011;26233;51.894;10.192;2022-09-30T06:11:06;4.87;;;3.40;;
40533;SDS011;26233;51.894;10.192;2022-09-30T06:13:36;4.90;;;3.80;;
40533;SDS011;26233;51.894;10.192;2022-09-30T06:16:04;6.17;;;4.33;;
40533;SDS011;26233;51.894;10.192;2022-09-30T06:18:32;4.20;;;3.63;;
40533;SDS011;26233;51.894;10.192;2022-09-30T06:21:00;3.40;;;3.03;;
40533;SDS011;26233;51.894;10.192;2022-09-30T06:23:31;3.43;;;3.10;;
40533;SDS011;26233;51.894;10.192;2022-09-30T06:26:01;2.60;;;2.40;;
40533;SDS011;26233;51.894;10.192;2022-09-30T06:28:29;3.17;;;2.30;;
40533;SDS011;26233;51.894;10.192;2022-09-30T06:30:59;2.27;;;2.07;;
40533;SDS011;26233;51.894;10.192;2022-09-30T06:33:26;2.20;;;2.10;;
40533;SDS011;26233;51.894;10.192;2022-09-30T06:35:54;4.78;;;2.67;;
40533;SDS011;26233;51.894;10.192;2022-09-30T06:38:23;2.23;;;2.03;;
40533;SDS011;26233;51.894;10.192;2022-09-30T06:40:52;1.97;;;1.77;;
40533;SDS011;26233;51.894;10.192;2022-09-30T06:43:22;2.00;;;1.90;;
40533;SDS011;26233;51.894;10.192;2022-09-30T06:45:49;1.97;;;1.87;;
40533;SDS011;26233;51.894;10.192;2022-09-30T06:48:16;1.53;;;1.43;;
40533;SDS011;26233;51.894;10.192;2022-09-30T06:50:43;1.77;;;1.33;;
40533;SDS011;26233;51.894;10.192;2022-09-30T06:53:11;1.80;;;1.50;;
40533;SDS011;26233;51.894;10.192;2022-09-30T06:55:38;1.97;;;1.40;;
40533;SDS011;26233;51.894;10.192;2022-09-30T06:58:07;1.50;;;1.30;;
40533;SDS011;26233;51.894;10.192;2022-09-30T07:00:41;1.47;;;1.30;;
40533;SDS011;26233;51.894;10.192;2022-09-30T07:03:08;1.50;;;1.40;;
40533;SDS011;26233;51.894;10.192;2022-09-30T07:05:53;1.50;;;1.40;;
40533;SDS011;26233;51.894;10.192;2022-09-30T07:08:22;1.43;;;1.33;;
40533;SDS011;26233;51.894;10.192;2022-09-30T07:10:53;1.60;;;1.40;;
40533;SDS011;26233;51.894;10.192;2022-09-30T07:13:21;3.67;;;1.53;;
40533;SDS011;26233;51.894;10.192;2022-09-30T07:15:49;1.67;;;1.57;;
40533;SDS011;26233;51.894;10.192;2022-09-30T07:18:18;1.40;;;1.30;;
40533;SDS011;26233;51.894;10.192;2022-09-30T07:20:46;1.50;;;1.40;;
40533;SDS011;26233;51.894;10.192;2022-09-30T07:23:14;1.47;;;1.37;;
40533;SDS011;26233;51.894;10.192;2022-09-30T07:25:48;1.67;;;1.57;;
40533;SDS011;26233;51.894;10.192;2022-09-30T07:28:17;1.70;;;1.30;;
40533;SDS011;26233;51.894;10.192;2022-09-30T07:30:45;2.27;;;1.40;;
40533;SDS011;26233;51.894;10.192;2022-09-30T07:33:13;2.80;;;1.87;;
40533;SDS011;26233;51.894;10.192;2022-09-30T07:35:50;2.10;;;1.53;;
40533;SDS011;26233;51.894;10.192;2022-09-30T07:38:18;1.50;;;1.40;;
40533;SDS011;26233;51.894;10.192;2022-09-30T07:40:55;1.98;;;1.58;;
40533;SDS011;26233;51.894;10.192;2022-09-30T07:43:25;1.88;;;1.77;;
40533;SDS011;26233;51.894;10.192;2022-09-30T07:46:03;1.85;;;1.75;;
40533;SDS011;26233;51.894;10.192;2022-09-30T07:48:33;1.60;;;1.50;;
40533;SDS011;26233;51.894;10.192;2022-09-30T07:51:13;1.75;;;1.65;;
40533;SDS011;26233;51.894;10.192;2022-09-30T07:53:44;1.77;;;1.67;;
40533;SDS011;26233;51.894;10.192;2022-09-30T07:56:13;1.65;;;1.55;;
40533;SDS011;26233;51.894;10.192;2022-09-30T07:58:40;1.75;;;1.65;;
40533;SDS011;26233;51.894;10.192;2022-09-30T08:01:08;1.60;;;1.50;;
40533;SDS011;26233;51.894;10.192;2022-09-30T08:03:38;1.73;;;1.63;;
40533;SDS011;26233;51.894;10.192;2022-09-30T08:06:09;1.58;;;1.45;;
40533;SDS011;26233;51.894;10.192;2022-09-30T08:08:39;2.15;;;1.95;;
40533;SDS011;26233;51.894;10.192;2022-09-30T08:11:08;1.83;;;1.60;;
40533;SDS011;26233;51.894;10.192;2022-09-30T08:13:36;1.50;;;1.40;;
40533;SDS011;26233;51.894;10.192;2022-09-30T08:16:04;1.63;;;1.52;;
40533;SDS011;26233;51.894;10.192;2022-09-30T08:18:31;1.30;;;1.20;;
40533;SDS011;26233;51.894;10.192;2022-09-30T08:21:02;1.48;;;1.25;;
40533;SDS011;26233;51.894;10.192;2022-09-30T08:23:32;3.42;;;1.50;;
40533;SDS011;26233;51.894;10.192;2022-09-30T08:26:00;1.48;;;1.38;;
40533;SDS011;26233;51.894;10.192;2022-09-30T08:28:28;2.42;;;1.90;;
40533;SDS011;26233;51.894;10.192;2022-09-30T08:31:03;1.90;;;1.80;;
40533;SDS011;26233;51.894;10.192;2022-09-30T08:33:32;1.92;;;1.77;;
40533;SDS011;26233;51.894;10.192;2022-09-30T08:36:04;2.75;;;2.17;;
40533;SDS011;26233;51.894;10.192;2022-09-30T08:38:34;2.30;;;2.10;;
40533;SDS011;26233;51.894;10.192;2022-09-30T08:41:10;3.45;;;1.98;;
40533;SDS011;26233;51.894;10.192;2022-09-30T08:43:53;1.95;;;1.85;;
40533;SDS011;26233;51.894;10.192;2022-09-30T08:46:37;1.90;;;1.80;;
40533;SDS011;26233;51.894;10.192;2022-09-30T08:49:17;2.00;;;1.80;;
40533;SDS011;26233;51.894;10.192;2022-09-30T08:52:00;1.90;;;1.80;;
40533;SDS011;26233;51.894;10.192;2022-09-30T08:54:31;1.95;;;1.83;;
40533;SDS011;26233;51.894;10.192;2022-09-30T08:57:00;2.25;;;2.05;;
40533;SDS011;26233;51.894;10.192;2022-09-30T08:59:31;1.90;;;1.80;;
40533;SDS011;26233;51.894;10.192;2022-09-30T09:02:03;2.40;;;2.20;;
40533;SDS011;26233;51.894;10.192;2022-09-30T09:04:45;2.20;;;2.00;;
40533;SDS011;26233;51.894;10.192;2022-09-30T09:07:21;2.17;;;2.00;;
40533;SDS011;26233;51.894;10.192;2022-09-30T09:10:06;1.80;;;1.70;;
40533;SDS011;26233;51.894;10.192;2022-09-30T09:12:49;2.35;;;1.70;;
40533;SDS011;26233;51.894;10.192;2022-09-30T09:15:28;1.92;;;1.60;;
40533;SDS011;26233;51.894;10.192;2022-09-30T09:21:13;1.90;;;1.80;;
40533;SDS011;26233;51.894;10.192;2022-09-30T09:23:50;2.60;;;1.88;;
40533;SDS011;26233;51.894;10.192;2022-09-30T09:26:21;2.33;;;2.08;;
40533;SDS011;26233;51.894;10.192;2022-09-30T09:28:57;1.52;;;1.42;;
40533;SDS011;26233;51.894;10.192;2022-09-30T09:31:37;2.25;;;1.75;;
40533;SDS011;26233;51.894;10.192;2022-09-30T09:34:08;2.38;;;1.77;;
40533;SDS011;26233;51.894;10.192;2022-09-30T09:36:44;1.55;;;1.45;;
40533;SDS011;26233;51.894;10.192;2022-09-30T09:39:33;1.40;;;1.25;;
40533;SDS011;26233;51.894;10.192;2022-09-30T09:42:26;1.73;;;1.63;;
40533;SDS011;26233;51.894;10.192;2022-09-30T09:45:11;2.05;;;1.45;;
40533;SDS011;26233;51.894;10.192;2022-09-30T09:47:51;1.63;;;1.52;;
40533;SDS011;26233;51.894;10.192;2022-09-30T09:50:22;1.63;;;1.52;;
40533;SDS011;26233;51.894;10.192;2022-09-30T09:53:02;1.90;;;1.77;;
40533;SDS011;26233;51.894;10.192;2022-09-30T09:55:43;1.90;;;1.73;;
40533;SDS011;26233;51.894;10.192;2022-09-30T09:58:10;1.98;;;1.70;;
40533;SDS011;26233;51.894;10.192;2022-09-30T10:00:41;2.20;;;1.65;;
40533;SDS011;26233;51.894;10.192;2022-09-30T10:03:26;2.28;;;2.08;;
40533;SDS011;26233;51.894;10.192;2022-09-30T10:06:01;2.97;;;1.98;;
40533;SDS011;26233;51.894;10.192;2022-09-30T10:08:31;2.13;;;1.83;;
40533;SDS011;26233;51.894;10.192;2022-09-30T10:11:16;1.85;;;1.48;;
40533;SDS011;26233;51.894;10.192;2022-09-30T10:13:47;3.55;;;1.90;;
40533;SDS011;26233;51.894;10.192;2022-09-30T10:16:24;3.42;;;2.00;;
40533;SDS011;26233;51.894;10.192;2022-09-30T10:18:54;1.83;;;1.73;;
40533;SDS011;26233;51.894;10.192;2022-09-30T10:21:22;1.77;;;1.67;;
40533;SDS011;26233;51.894;10.192;2022-09-30T10:23:51;2.50;;;2.00;;
40533;SDS011;26233;51.894;10.192;2022-09-30T10:26:20;2.47;;;2.20;;
40533;SDS011;26233;51.894;10.192;2022-09-30T10:28:50;1.88;;;1.70;;
40533;SDS011;26233;51.894;10.192;2022-09-30T10:31:21;1.52;;;1.38;;
40533;SDS011;26233;51.894;10.192;2022-09-30T10:33:52;2.03;;;1.60;;
40533;SDS011;26233;51.894;10.192;2022-09-30T10:36:28;2.28;;;1.67;;
40533;SDS011;26233;51.894;10.192;2022-09-30T10:38:58;1.75;;;1.52;;
40533;SDS011;26233;51.894;10.192;2022-09-30T10:41:33;1.92;;;1.42;;
40533;SDS011;26233;51.894;10.192;2022-09-30T10:44:04;2.17;;;1.50;;
40533;SDS011;26233;51.894;10.192;2022-09-30T10:46:38;1.55;;;1.42;;
40533;SDS011;26233;51.894;10.192;2022-09-30T10:49:07;1.20;;;1.10;;
40533;SDS011;26233;51.894;10.192;2022-09-30T10:51:39;1.27;;;1.17;;
40533;SDS011;26233;51.894;10.192;2022-09-30T10:54:30;1.20;;;1.10;;
40533;SDS011;26233;51.894;10.192;2022-09-30T10:57:15;1.60;;;1.30;;
40533;SDS011;26233;51.894;10.192;2022-09-30T10:59:46;1.20;;;1.10;;
40533;SDS011;26233;51.894;10.192;2022-09-30T11:02:20;0.90;;;0.90;;
40533;SDS011;26233;51.894;10.192;2022-09-30T11:04:55;1.80;;;1.25;;
40533;SDS011;26233;51.894;10.192;2022-09-30T11:07:35;1.48;;;1.27;;
40533;SDS011;26233;51.894;10.192;2022-09-30T11:10:13;1.40;;;1.30;;
40533;SDS011;26233;51.894;10.192;2022-09-30T11:13:00;1.17;;;1.08;;
40533;SDS011;26233;51.894;10.192;2022-09-30T11:15:41;1.20;;;1.10;;
40533;SDS011;26233;51.894;10.192;2022-09-30T11:18:20;2.33;;;1.13;;
40533;SDS011;26233;51.894;10.192;2022-09-30T11:20:53;1.55;;;1.17;;
40533;SDS011;26233;51.894;10.192;2022-09-30T11:23:26;1.55;;;1.40;;
40533;SDS011;26233;51.894;10.192;2022-09-30T11:25:59;1.15;;;1.05;;
40533;SDS011;26233;51.894;10.192;2022-09-30T11:28:41;1.23;;;1.13;;
40533;SDS011;26233;51.894;10.192;2022-09-30T11:31:29;1.55;;;1.10;;
40533;SDS011;26233;51.894;10.192;2022-09-30T11:34:11;1.17;;;1.08;;
40533;SDS011;26233;51.894;10.192;2022-09-30T11:37:15;1.10;;;1.00;;
40533;SDS011;26233;51.894;10.192;2022-09-30T11:39:57;1.30;;;1.20;;
40533;SDS011;26233;51.894;10.192;2022-09-30T11:42:45;1.23;;;1.10;;
40533;SDS011;26233;51.894;10.192;2022-09-30T11:45:25;1.88;;;1.17;;
40533;SDS011;26233;51.894;10.192;2022-09-30T11:48:05;1.00;;;0.90;;
40533;SDS011;26233;51.894;10.192;2022-09-30T11:50:51;1.30;;;1.20;;
40533;SDS011;26233;51.894;10.192;2022-09-30T11:53:33;1.40;;;1.20;;
40533;SDS011;26233;51.894;10.192;2022-09-30T11:56:16;1.70;;;1.13;;
40533;SDS011;26233;51.894;10.192;2022-09-30T11:59:11;1.20;;;1.10;;
40533;SDS011;26233;51.894;10.192;2022-09-30T12:01:48;1.23;;;1.17;;
40533;SDS011;26233;51.894;10.192;2022-09-30T12:04:19;1.23;;;1.15;;
40533;SDS011;26233;51.894;10.192;2022-09-30T12:06:55;1.23;;;1.20;;
40533;SDS011;26233;51.894;10.192;2022-09-30T12:09:29;1.30;;;1.20;;
40533;SDS011;26233;51.894;10.192;2022-09-30T12:12:02;1.67;;;1.20;;
40533;SDS011;26233;51.894;10.192;2022-09-30T12:14:35;1.80;;;1.10;;
40533;SDS011;26233;51.894;10.192;2022-09-30T12:17:11;1.10;;;1.00;;
40533;SDS011;26233;51.894;10.192;2022-09-30T12:19:48;1.00;;;1.00;;
40533;SDS011;26233;51.894;10.192;2022-09-30T12:22:18;1.20;;;1.10;;
40533;SDS011;26233;51.894;10.192;2022-09-30T12:24:52;1.48;;;1.30;;
40533;SDS011;26233;51.894;10.192;2022-09-30T12:27:20;2.78;;;1.30;;
40533;SDS011;26233;51.894;10.192;2022-09-30T12:29:54;1.77;;;1.10;;
40533;SDS011;26233;51.894;10.192;2022-09-30T12:42:16;1.23;;;1.10;;
40533;SDS011;26233;51.894;10.192;2022-09-30T12:48:05;1.10;;;1.00;;
40533;SDS011;26233;51.894;10.192;2022-09-30T12:50:40;1.10;;;1.00;;
40533;SDS011;26233;51.894;10.192;2022-09-30T12:53:14;1.85;;;1.00;;
40533;SDS011;26233;51.894;10.192;2022-09-30T12:55:46;1.10;;;1.00;;
40533;SDS011;26233;51.894;10.192;2022-09-30T12:58:18;1.15;;;1.05;;
40533;SDS011;26233;51.894;10.192;2022-09-30T13:00:59;2.45;;;1.10;;
40533;SDS011;26233;51.894;10.192;2022-09-30T13:03:42;1.20;;;1.10;;
40533;SDS011;26233;51.894;10.192;2022-09-30T13:06:16;1.98;;;1.20;;
40533;SDS011;26233;51.894;10.192;2022-09-30T13:11:43;1.40;;;1.30;;
40533;SDS011;26233;51.894;10.192;2022-09-30T13:14:16;1.10;;;1.00;;
40533;SDS011;26233;51.894;10.192;2022-09-30T13:20:00;1.30;;;1.10;;
40533;SDS011;26233;51.894;10.192;2022-09-30T13:25:23;2.45;;;1.33;;
40533;SDS011;26233;51.894;10.192;2022-09-30T13:27:51;1.50;;;1.40;;
40533;SDS011;26233;51.894;10.192;2022-09-30T13:30:49;1.30;;;1.20;;
40533;SDS011;26233;51.894;10.192;2022-09-30T13:33:40;1.30;;;1.20;;
40533;SDS011;26233;51.894;10.192;2022-09-30T13:36:15;1.85;;;1.10;;
40533;SDS011;26233;51.894;10.192;2022-09-30T13:39:06;1.10;;;1.00;;
40533;SDS011;26233;51.894;10.192;2022-09-30T13:41:46;1.33;;;1.15;;
40533;SDS011;26233;51.894;10.192;2022-09-30T13:44:25;1.48;;;1.33;;
40533;SDS011;26233;51.894;10.192;2022-09-30T13:47:05;1.15;;;1.05;;
40533;SDS011;26233;51.894;10.192;2022-09-30T13:49:44;1.75;;;1.23;;
40533;SDS011;26233;51.894;10.192;2022-09-30T13:52:19;1.40;;;1.30;;
40533;SDS011;26233;51.894;10.192;2022-09-30T13:54:54;0.98;;;0.98;;
40533;SDS011;26233;51.894;10.192;2022-09-30T13:57:24;1.02;;;0.90;;
40533;SDS011;26233;51.894;10.192;2022-09-30T14:00:04;1.00;;;1.00;;
40533;SDS011;26233;51.894;10.192;2022-09-30T14:05:34;1.10;;;0.93;;
40533;SDS011;26233;51.894;10.192;2022-09-30T14:11:39;2.70;;;1.00;;
40533;SDS011;26233;51.894;10.192;2022-09-30T14:14:35;0.85;;;0.80;;
40533;SDS011;26233;51.894;10.192;2022-09-30T14:17:59;1.30;;;0.90;;
40533;SDS011;26233;51.894;10.192;2022-09-30T14:24:00;1.10;;;0.90;;
40533;SDS011;26233;51.894;10.192;2022-09-30T14:29:45;0.95;;;0.90;;
40533;SDS011;26233;51.894;10.192;2022-09-30T14:32:25;0.70;;;0.70;;
40533;SDS011;26233;51.894;10.192;2022-09-30T14:34:55;1.63;;;0.80;;
40533;SDS011;26233;51.894;10.192;2022-09-30T14:37:25;0.98;;;0.85;;
40533;SDS011;26233;51.894;10.192;2022-09-30T14:39:55;1.00;;;0.90;;
40533;SDS011;26233;51.894;10.192;2022-09-30T14:42:26;0.90;;;0.90;;
40533;SDS011;26233;51.894;10.192;2022-09-30T14:44:57;0.80;;;0.80;;
40533;SDS011;26233;51.894;10.192;2022-09-30T14:47:30;0.82;;;0.77;;
40533;SDS011;26233;51.894;10.192;2022-09-30T14:49:59;0.75;;;0.75;;
40533;SDS011;26233;51.894;10.192;2022-09-30T14:52:32;1.25;;;0.90;;
40533;SDS011;26233;51.894;10.192;2022-09-30T14:55:15;0.98;;;0.93;;
40533;SDS011;26233;51.894;10.192;2022-09-30T14:57:49;1.08;;;0.90;;
40533;SDS011;26233;51.894;10.192;2022-09-30T15:00:20;1.13;;;1.10;;
40533;SDS011;26233;51.894;10.192;2022-09-30T15:02:53;0.93;;;0.93;;
40533;SDS011;26233;51.894;10.192;2022-09-30T15:05:20;0.98;;;0.90;;
40533;SDS011;26233;51.894;10.192;2022-09-30T15:07:48;1.10;;;0.90;;
40533;SDS011;26233;51.894;10.192;2022-09-30T15:10:16;1.98;;;0.95;;
40533;SDS011;26233;51.894;10.192;2022-09-30T15:12:46;0.93;;;0.93;;
40533;SDS011;26233;51.894;10.192;2022-09-30T15:15:31;1.52;;;1.02;;
40533;SDS011;26233;51.894;10.192;2022-09-30T15:18:07;1.17;;;0.95;;
40533;SDS011;26233;51.894;10.192;2022-09-30T15:20:49;1.08;;;0.98;;
40533;SDS011;26233;51.894;10.192;2022-09-30T15:23:18;1.25;;;1.15;;
40533;SDS011;26233;51.894;10.192;2022-09-30T15:25:55;1.00;;;0.93;;
40533;SDS011;26233;51.894;10.192;2022-09-30T15:28:25;1.10;;;1.00;;
40533;SDS011;26233;51.894;10.192;2022-09-30T15:30:52;1.02;;;0.93;;
40533;SDS011;26233;51.894;10.192;2022-09-30T15:33:23;1.10;;;1.00;;
40533;SDS011;26233;51.894;10.192;2022-09-30T15:35:59;1.20;;;1.08;;
40533;SDS011;26233;51.894;10.192;2022-09-30T15:38:32;1.33;;;1.00;;
40533;SDS011;26233;51.894;10.192;2022-09-30T15:41:04;1.00;;;0.90;;
40533;SDS011;26233;51.894;10.192;2022-09-30T15:43:38;0.80;;;0.80;;
40533;SDS011;26233;51.894;10.192;2022-09-30T15:46:17;1.10;;;1.00;;
40533;SDS011;26233;51.894;10.192;2022-09-30T15:48:51;1.30;;;0.93;;
40533;SDS011;26233;51.894;10.192;2022-09-30T15:51:30;1.20;;;1.00;;
40533;SDS011;26233;51.894;10.192;2022-09-30T15:54:01;1.77;;;1.00;;
40533;SDS011;26233;51.894;10.192;2022-09-30T15:56:56;1.00;;;0.90;;
40533;SDS011;26233;51.894;10.192;2022-09-30T16:02:25;0.80;;;0.80;;